sensor_id;sensor_type;location;lat;lon;timestamp;P1;durP1;ratioP1;P2;durP2;ratioP2
59366;SDS011;45163;47.690;11.770;2023-07-13T00:01:29;289.00;;;269.50;;
59366;SDS011;45163;47.690;11.770;2023-07-13T00:03:56;281.67;;;262.53;;
59366;SDS011;45163;47.690;11.770;2023-07-13T00:06:22;276.97;;;257.93;;
59366;SDS011;45163;47.690;11.770;2023-07-13T00:08:49;273.40;;;253.93;;
59366;SDS011;45163;47.690;11.770;2023-07-13T00:11:15;260.00;;;242.27;;
59366;SDS011;45163;47.690;11.770;2023-07-13T00:13:43;258.07;;;240.03;;
59366;SDS011;45163;47.690;11.770;2023-07-13T00:16:10;234.80;;;218.27;;
59366;SDS011;45163;47.690;11.770;2023-07-13T00:18:37;253.10;;;234.93;;
59366;SDS011;45163;47.690;11.770;2023-07-13T00:21:03;226.40;;;210.60;;
59366;SDS011;45163;47.690;11.770;2023-07-13T00:23:33;220.00;;;204.77;;
59366;SDS011;45163;47.690;11.770;2023-07-13T00:26:00;230.10;;;213.80;;
59366;SDS011;45163;47.690;11.770;2023-07-13T00:28:27;211.67;;;197.03;;
59366;SDS011;45163;47.690;11.770;2023-07-13T00:30:54;208.50;;;193.87;;
59366;SDS011;45163;47.690;11.770;2023-07-13T00:33:20;207.27;;;192.60;;
59366;SDS011;45163;47.690;11.770;2023-07-13T00:35:46;189.77;;;176.23;;
59366;SDS011;45163;47.690;11.770;2023-07-13T00:38:12;203.47;;;188.67;;
59366;SDS011;45163;47.690;11.770;2023-07-13T00:40:38;176.50;;;164.77;;
59366;SDS011;45163;47.690;11.770;2023-07-13T00:43:08;177.67;;;165.57;;
59366;SDS011;45163;47.690;11.770;2023-07-13T00:48:38;167.63;;;156.80;;
59366;SDS011;45163;47.690;11.770;2023-07-13T00:51:04;184.73;;;172.13;;
59366;SDS011;45163;47.690;11.770;2023-07-13T00:53:31;187.93;;;174.53;;
59366;SDS011;45163;47.690;11.770;2023-07-13T00:55:59;203.37;;;188.27;;
59366;SDS011;45163;47.690;11.770;2023-07-13T00:58:25;177.87;;;165.40;;
59366;SDS011;45163;47.690;11.770;2023-07-13T01:00:53;150.30;;;141.17;;
59366;SDS011;45163;47.690;11.770;2023-07-13T01:03:19;137.00;;;128.43;;
59366;SDS011;45163;47.690;11.770;2023-07-13T01:05:46;171.60;;;160.33;;
59366;SDS011;45163;47.690;11.770;2023-07-13T01:08:14;179.00;;;167.23;;
59366;SDS011;45163;47.690;11.770;2023-07-13T01:10:40;186.23;;;173.80;;
59366;SDS011;45163;47.690;11.770;2023-07-13T01:13:07;194.30;;;181.23;;
59366;SDS011;45163;47.690;11.770;2023-07-13T01:15:44;201.40;;;187.83;;
59366;SDS011;45163;47.690;11.770;2023-07-13T01:18:13;200.80;;;186.53;;
59366;SDS011;45163;47.690;11.770;2023-07-13T01:20:58;159.93;;;150.27;;
59366;SDS011;45163;47.690;11.770;2023-07-13T01:23:24;162.03;;;152.23;;
59366;SDS011;45163;47.690;11.770;2023-07-13T01:25:52;185.00;;;173.20;;
59366;SDS011;45163;47.690;11.770;2023-07-13T01:28:18;177.63;;;165.97;;
59366;SDS011;45163;47.690;11.770;2023-07-13T01:30:45;198.87;;;185.30;;
59366;SDS011;45163;47.690;11.770;2023-07-13T01:33:15;204.13;;;191.17;;
59366;SDS011;45163;47.690;11.770;2023-07-13T01:35:44;198.70;;;186.30;;
59366;SDS011;45163;47.690;11.770;2023-07-13T01:38:13;195.00;;;183.07;;
59366;SDS011;45163;47.690;11.770;2023-07-13T01:40:40;197.70;;;185.80;;
59366;SDS011;45163;47.690;11.770;2023-07-13T01:43:06;188.27;;;176.83;;
59366;SDS011;45163;47.690;11.770;2023-07-13T01:45:32;188.30;;;176.70;;
59366;SDS011;45163;47.690;11.770;2023-07-13T01:47:58;184.03;;;172.33;;
59366;SDS011;45163;47.690;11.770;2023-07-13T01:50:25;194.87;;;182.73;;
59366;SDS011;45163;47.690;11.770;2023-07-13T01:52:51;199.93;;;187.90;;
59366;SDS011;45163;47.690;11.770;2023-07-13T01:55:19;205.93;;;193.67;;
59366;SDS011;45163;47.690;11.770;2023-07-13T01:57:46;198.07;;;186.67;;
59366;SDS011;45163;47.690;11.770;2023-07-13T02:00:12;199.07;;;187.00;;
59366;SDS011;45163;47.690;11.770;2023-07-13T02:02:39;202.13;;;190.00;;
59366;SDS011;45163;47.690;11.770;2023-07-13T02:05:05;207.07;;;194.30;;
59366;SDS011;45163;47.690;11.770;2023-07-13T02:07:32;211.27;;;198.87;;
59366;SDS011;45163;47.690;11.770;2023-07-13T02:09:58;203.43;;;191.67;;
59366;SDS011;45163;47.690;11.770;2023-07-13T02:12:24;188.40;;;177.77;;
59366;SDS011;45163;47.690;11.770;2023-07-13T02:14:50;186.67;;;176.17;;
59366;SDS011;45163;47.690;11.770;2023-07-13T02:17:16;189.27;;;178.53;;
59366;SDS011;45163;47.690;11.770;2023-07-13T02:19:42;198.93;;;187.93;;
59366;SDS011;45163;47.690;11.770;2023-07-13T02:22:08;182.37;;;172.37;;
59366;SDS011;45163;47.690;11.770;2023-07-13T02:24:34;185.70;;;175.43;;
59366;SDS011;45163;47.690;11.770;2023-07-13T02:27:00;197.80;;;186.90;;
59366;SDS011;45163;47.690;11.770;2023-07-13T02:29:26;191.07;;;180.47;;
59366;SDS011;45163;47.690;11.770;2023-07-13T02:31:52;176.77;;;166.93;;
59366;SDS011;45163;47.690;11.770;2023-07-13T02:34:18;158.53;;;149.77;;
59366;SDS011;45163;47.690;11.770;2023-07-13T02:36:43;162.27;;;153.30;;
59366;SDS011;45163;47.690;11.770;2023-07-13T02:39:10;181.47;;;171.37;;
59366;SDS011;45163;47.690;11.770;2023-07-13T02:41:37;159.60;;;150.70;;
59366;SDS011;45163;47.690;11.770;2023-07-13T02:44:03;171.40;;;161.97;;
59366;SDS011;45163;47.690;11.770;2023-07-13T02:46:30;170.50;;;161.07;;
59366;SDS011;45163;47.690;11.770;2023-07-13T02:48:56;163.90;;;154.77;;
59366;SDS011;45163;47.690;11.770;2023-07-13T02:51:23;171.37;;;161.73;;
59366;SDS011;45163;47.690;11.770;2023-07-13T02:53:49;178.57;;;168.60;;
59366;SDS011;45163;47.690;11.770;2023-07-13T02:56:14;173.93;;;163.90;;
59366;SDS011;45163;47.690;11.770;2023-07-13T02:58:40;172.80;;;163.10;;
59366;SDS011;45163;47.690;11.770;2023-07-13T03:01:08;166.10;;;156.53;;
59366;SDS011;45163;47.690;11.770;2023-07-13T03:03:35;171.60;;;161.87;;
59366;SDS011;45163;47.690;11.770;2023-07-13T03:06:02;173.57;;;163.57;;
59366;SDS011;45163;47.690;11.770;2023-07-13T03:08:30;176.10;;;165.97;;
59366;SDS011;45163;47.690;11.770;2023-07-13T03:11:00;168.23;;;158.57;;
59366;SDS011;45163;47.690;11.770;2023-07-13T03:13:27;163.47;;;154.20;;
59366;SDS011;45163;47.690;11.770;2023-07-13T03:15:54;160.60;;;151.37;;
59366;SDS011;45163;47.690;11.770;2023-07-13T03:18:20;160.20;;;150.70;;
59366;SDS011;45163;47.690;11.770;2023-07-13T03:20:46;162.17;;;152.43;;
59366;SDS011;45163;47.690;11.770;2023-07-13T03:23:12;150.60;;;141.37;;
59366;SDS011;45163;47.690;11.770;2023-07-13T03:25:38;147.33;;;138.33;;
59366;SDS011;45163;47.690;11.770;2023-07-13T03:28:04;150.70;;;141.47;;
59366;SDS011;45163;47.690;11.770;2023-07-13T03:30:31;154.87;;;145.47;;
59366;SDS011;45163;47.690;11.770;2023-07-13T03:32:57;160.10;;;150.53;;
59366;SDS011;45163;47.690;11.770;2023-07-13T03:35:23;126.03;;;118.40;;
59366;SDS011;45163;47.690;11.770;2023-07-13T03:37:49;123.37;;;115.87;;
59366;SDS011;45163;47.690;11.770;2023-07-13T03:40:15;136.23;;;127.97;;
59366;SDS011;45163;47.690;11.770;2023-07-13T03:42:41;144.57;;;135.83;;
59366;SDS011;45163;47.690;11.770;2023-07-13T03:45:07;135.53;;;127.27;;
59366;SDS011;45163;47.690;11.770;2023-07-13T03:47:33;127.40;;;119.60;;
59366;SDS011;45163;47.690;11.770;2023-07-13T03:49:59;138.73;;;130.27;;
59366;SDS011;45163;47.690;11.770;2023-07-13T03:52:25;143.00;;;134.37;;
59366;SDS011;45163;47.690;11.770;2023-07-13T03:54:51;151.87;;;142.80;;
59366;SDS011;45163;47.690;11.770;2023-07-13T03:57:18;146.60;;;137.57;;
59366;SDS011;45163;47.690;11.770;2023-07-13T03:59:44;139.07;;;130.03;;
59366;SDS011;45163;47.690;11.770;2023-07-13T04:02:10;145.13;;;136.40;;
59366;SDS011;45163;47.690;11.770;2023-07-13T04:04:36;194.37;;;183.00;;
59366;SDS011;45163;47.690;11.770;2023-07-13T04:07:06;205.27;;;193.30;;
59366;SDS011;45163;47.690;11.770;2023-07-13T04:09:34;197.17;;;185.40;;
59366;SDS011;45163;47.690;11.770;2023-07-13T04:12:01;177.43;;;166.93;;
59366;SDS011;45163;47.690;11.770;2023-07-13T04:14:27;150.40;;;141.37;;
59366;SDS011;45163;47.690;11.770;2023-07-13T04:16:53;139.03;;;130.40;;
59366;SDS011;45163;47.690;11.770;2023-07-13T04:19:20;143.97;;;135.30;;
59366;SDS011;45163;47.690;11.770;2023-07-13T04:21:46;159.40;;;150.10;;
59366;SDS011;45163;47.690;11.770;2023-07-13T04:24:12;166.93;;;157.30;;
59366;SDS011;45163;47.690;11.770;2023-07-13T04:26:38;193.83;;;182.90;;
59366;SDS011;45163;47.690;11.770;2023-07-13T04:29:06;195.03;;;183.93;;
59366;SDS011;45163;47.690;11.770;2023-07-13T04:31:33;190.13;;;178.97;;
59366;SDS011;45163;47.690;11.770;2023-07-13T04:33:59;173.53;;;163.43;;
59366;SDS011;45163;47.690;11.770;2023-07-13T04:36:25;206.73;;;194.90;;
59366;SDS011;45163;47.690;11.770;2023-07-13T04:38:54;225.70;;;212.73;;
59366;SDS011;45163;47.690;11.770;2023-07-13T04:41:20;172.27;;;162.20;;
59366;SDS011;45163;47.690;11.770;2023-07-13T04:43:47;164.37;;;154.60;;
59366;SDS011;45163;47.690;11.770;2023-07-13T04:46:14;176.87;;;166.60;;
59366;SDS011;45163;47.690;11.770;2023-07-13T04:48:43;206.03;;;194.17;;
59366;SDS011;45163;47.690;11.770;2023-07-13T04:51:09;233.07;;;219.63;;
59366;SDS011;45163;47.690;11.770;2023-07-13T04:53:35;236.57;;;222.87;;
59366;SDS011;45163;47.690;11.770;2023-07-13T04:56:02;240.60;;;226.57;;
59366;SDS011;45163;47.690;11.770;2023-07-13T04:58:28;286.83;;;269.10;;
59366;SDS011;45163;47.690;11.770;2023-07-13T05:01:05;287.40;;;269.77;;
59366;SDS011;45163;47.690;11.770;2023-07-13T05:03:31;273.57;;;256.53;;
59366;SDS011;45163;47.690;11.770;2023-07-13T05:05:59;275.47;;;258.13;;
59366;SDS011;45163;47.690;11.770;2023-07-13T05:08:30;259.23;;;243.10;;
59366;SDS011;45163;47.690;11.770;2023-07-13T05:10:56;271.10;;;254.67;;
59366;SDS011;45163;47.690;11.770;2023-07-13T05:13:22;300.17;;;282.00;;
59366;SDS011;45163;47.690;11.770;2023-07-13T05:15:58;285.87;;;268.10;;
59366;SDS011;45163;47.690;11.770;2023-07-13T05:18:26;272.73;;;256.20;;
59366;SDS011;45163;47.690;11.770;2023-07-13T05:20:59;295.17;;;277.70;;
59366;SDS011;45163;47.690;11.770;2023-07-13T05:23:31;274.33;;;258.20;;
59366;SDS011;45163;47.690;11.770;2023-07-13T05:25:58;279.43;;;262.57;;
59366;SDS011;45163;47.690;11.770;2023-07-13T05:28:24;261.67;;;246.37;;
59366;SDS011;45163;47.690;11.770;2023-07-13T05:30:51;272.20;;;256.53;;
59366;SDS011;45163;47.690;11.770;2023-07-13T05:33:17;272.47;;;256.70;;
59366;SDS011;45163;47.690;11.770;2023-07-13T05:35:43;255.13;;;240.30;;
59366;SDS011;45163;47.690;11.770;2023-07-13T05:38:09;282.77;;;266.60;;
59366;SDS011;45163;47.690;11.770;2023-07-13T05:40:35;248.83;;;233.67;;
59366;SDS011;45163;47.690;11.770;2023-07-13T05:43:01;215.93;;;202.83;;
59366;SDS011;45163;47.690;11.770;2023-07-13T05:45:27;209.77;;;196.40;;
59366;SDS011;45163;47.690;11.770;2023-07-13T05:47:53;243.67;;;229.33;;
59366;SDS011;45163;47.690;11.770;2023-07-13T05:50:19;265.63;;;250.33;;
59366;SDS011;45163;47.690;11.770;2023-07-13T05:52:45;245.73;;;231.33;;
59366;SDS011;45163;47.690;11.770;2023-07-13T05:55:11;240.47;;;225.47;;
59366;SDS011;45163;47.690;11.770;2023-07-13T05:57:37;252.23;;;236.30;;
59366;SDS011;45163;47.690;11.770;2023-07-13T06:00:03;242.23;;;227.20;;
59366;SDS011;45163;47.690;11.770;2023-07-13T06:02:29;239.17;;;225.30;;
59366;SDS011;45163;47.690;11.770;2023-07-13T06:04:56;233.33;;;219.47;;
59366;SDS011;45163;47.690;11.770;2023-07-13T06:07:22;232.77;;;219.27;;
59366;SDS011;45163;47.690;11.770;2023-07-13T06:09:48;229.47;;;215.60;;
59366;SDS011;45163;47.690;11.770;2023-07-13T06:12:13;240.23;;;225.23;;
59366;SDS011;45163;47.690;11.770;2023-07-13T06:14:39;212.20;;;199.00;;
59366;SDS011;45163;47.690;11.770;2023-07-13T06:17:05;195.00;;;183.03;;
59366;SDS011;45163;47.690;11.770;2023-07-13T06:19:31;211.80;;;198.17;;
59366;SDS011;45163;47.690;11.770;2023-07-13T06:21:57;219.70;;;205.57;;
59366;SDS011;45163;47.690;11.770;2023-07-13T06:24:24;220.30;;;204.67;;
59366;SDS011;45163;47.690;11.770;2023-07-13T06:26:51;245.43;;;230.27;;
59366;SDS011;45163;47.690;11.770;2023-07-13T06:29:17;220.33;;;205.60;;
59366;SDS011;45163;47.690;11.770;2023-07-13T06:31:43;213.73;;;199.77;;
59366;SDS011;45163;47.690;11.770;2023-07-13T06:34:09;201.47;;;187.93;;
59366;SDS011;45163;47.690;11.770;2023-07-13T06:36:35;177.57;;;166.13;;
59366;SDS011;45163;47.690;11.770;2023-07-13T06:39:02;198.77;;;186.07;;
59366;SDS011;45163;47.690;11.770;2023-07-13T06:41:28;170.43;;;159.87;;
59366;SDS011;45163;47.690;11.770;2023-07-13T06:43:56;166.43;;;155.87;;
59366;SDS011;45163;47.690;11.770;2023-07-13T06:46:22;183.10;;;170.80;;
59366;SDS011;45163;47.690;11.770;2023-07-13T06:48:48;207.80;;;193.90;;
59366;SDS011;45163;47.690;11.770;2023-07-13T06:51:15;198.20;;;185.10;;
59366;SDS011;45163;47.690;11.770;2023-07-13T06:53:41;189.13;;;176.93;;
59366;SDS011;45163;47.690;11.770;2023-07-13T06:56:09;190.57;;;178.57;;
59366;SDS011;45163;47.690;11.770;2023-07-13T06:58:36;162.47;;;152.50;;
59366;SDS011;45163;47.690;11.770;2023-07-13T07:01:03;164.87;;;154.87;;
59366;SDS011;45163;47.690;11.770;2023-07-13T07:03:30;163.03;;;152.90;;
59366;SDS011;45163;47.690;11.770;2023-07-13T07:06:00;157.57;;;147.80;;
59366;SDS011;45163;47.690;11.770;2023-07-13T07:08:27;157.17;;;147.23;;
59366;SDS011;45163;47.690;11.770;2023-07-13T07:10:52;147.87;;;138.03;;
59366;SDS011;45163;47.690;11.770;2023-07-13T07:13:19;145.33;;;136.43;;
59366;SDS011;45163;47.690;11.770;2023-07-13T07:15:46;105.30;;;99.00;;
59366;SDS011;45163;47.690;11.770;2023-07-13T07:18:12;121.53;;;114.17;;
59366;SDS011;45163;47.690;11.770;2023-07-13T07:20:37;139.90;;;131.23;;
59366;SDS011;45163;47.690;11.770;2023-07-13T07:23:03;143.97;;;134.43;;
59366;SDS011;45163;47.690;11.770;2023-07-13T07:25:29;152.80;;;143.00;;
59366;SDS011;45163;47.690;11.770;2023-07-13T07:27:58;157.87;;;147.47;;
59366;SDS011;45163;47.690;11.770;2023-07-13T07:30:24;143.90;;;134.20;;
59366;SDS011;45163;47.690;11.770;2023-07-13T07:32:53;144.17;;;134.93;;
59366;SDS011;45163;47.690;11.770;2023-07-13T07:35:20;153.57;;;143.33;;
59366;SDS011;45163;47.690;11.770;2023-07-13T07:37:46;174.30;;;162.93;;
59366;SDS011;45163;47.690;11.770;2023-07-13T07:40:12;183.80;;;172.13;;
59366;SDS011;45163;47.690;11.770;2023-07-13T07:42:38;158.37;;;149.03;;
59366;SDS011;45163;47.690;11.770;2023-07-13T07:45:04;93.27;;;87.63;;
59366;SDS011;45163;47.690;11.770;2023-07-13T07:47:30;191.67;;;179.63;;
59366;SDS011;45163;47.690;11.770;2023-07-13T07:49:57;144.50;;;136.00;;
59366;SDS011;45163;47.690;11.770;2023-07-13T07:52:23;232.13;;;216.23;;
59366;SDS011;45163;47.690;11.770;2023-07-13T07:54:49;146.80;;;136.60;;
59366;SDS011;45163;47.690;11.770;2023-07-13T07:57:15;164.90;;;154.83;;
59366;SDS011;45163;47.690;11.770;2023-07-13T07:59:41;183.53;;;173.10;;
59366;SDS011;45163;47.690;11.770;2023-07-13T08:02:10;246.77;;;232.93;;
59366;SDS011;45163;47.690;11.770;2023-07-13T08:04:39;121.67;;;114.37;;
59366;SDS011;45163;47.690;11.770;2023-07-13T08:07:05;101.60;;;95.93;;
59366;SDS011;45163;47.690;11.770;2023-07-13T08:09:32;102.23;;;96.60;;
59366;SDS011;45163;47.690;11.770;2023-07-13T08:11:58;100.57;;;94.97;;
59366;SDS011;45163;47.690;11.770;2023-07-13T08:14:24;83.60;;;78.67;;
59366;SDS011;45163;47.690;11.770;2023-07-13T08:16:50;85.67;;;80.80;;
59366;SDS011;45163;47.690;11.770;2023-07-13T08:19:16;78.73;;;74.30;;
59366;SDS011;45163;47.690;11.770;2023-07-13T08:21:42;83.80;;;79.17;;
59366;SDS011;45163;47.690;11.770;2023-07-13T08:24:09;114.10;;;107.83;;
59366;SDS011;45163;47.690;11.770;2023-07-13T08:26:35;76.80;;;72.60;;
59366;SDS011;45163;47.690;11.770;2023-07-13T08:29:01;71.87;;;67.90;;
59366;SDS011;45163;47.690;11.770;2023-07-13T08:31:28;79.27;;;74.67;;
59366;SDS011;45163;47.690;11.770;2023-07-13T08:33:54;84.40;;;79.20;;
59366;SDS011;45163;47.690;11.770;2023-07-13T08:36:20;117.77;;;110.97;;
59366;SDS011;45163;47.690;11.770;2023-07-13T08:38:46;111.60;;;105.17;;
59366;SDS011;45163;47.690;11.770;2023-07-13T08:41:13;118.03;;;111.40;;
59366;SDS011;45163;47.690;11.770;2023-07-13T08:43:42;109.23;;;103.00;;
59366;SDS011;45163;47.690;11.770;2023-07-13T08:48:50;78.47;;;74.03;;
59366;SDS011;45163;47.690;11.770;2023-07-13T08:54:22;106.70;;;100.40;;
59366;SDS011;45163;47.690;11.770;2023-07-13T08:56:55;123.13;;;114.87;;
59366;SDS011;45163;47.690;11.770;2023-07-13T08:59:25;108.87;;;101.83;;
59366;SDS011;45163;47.690;11.770;2023-07-13T09:02:03;127.17;;;118.57;;
59366;SDS011;45163;47.690;11.770;2023-07-13T09:04:42;123.60;;;115.50;;
59366;SDS011;45163;47.690;11.770;2023-07-13T09:07:24;103.13;;;97.07;;
59366;SDS011;45163;47.690;11.770;2023-07-13T09:12:28;78.97;;;74.47;;
59366;SDS011;45163;47.690;11.770;2023-07-13T09:14:57;110.63;;;104.47;;
59366;SDS011;45163;47.690;11.770;2023-07-13T09:17:30;89.23;;;84.23;;
59366;SDS011;45163;47.690;11.770;2023-07-13T09:22:45;98.57;;;93.00;;
59366;SDS011;45163;47.690;11.770;2023-07-13T09:25:31;84.87;;;80.03;;
59366;SDS011;45163;47.690;11.770;2023-07-13T09:28:08;80.87;;;76.27;;
59366;SDS011;45163;47.690;11.770;2023-07-13T09:33:19;74.97;;;70.77;;
59366;SDS011;45163;47.690;11.770;2023-07-13T09:35:46;60.87;;;57.43;;
59366;SDS011;45163;47.690;11.770;2023-07-13T09:44:00;74.77;;;70.50;;
59366;SDS011;45163;47.690;11.770;2023-07-13T09:46:47;72.50;;;68.33;;
59366;SDS011;45163;47.690;11.770;2023-07-13T09:49:18;67.83;;;63.87;;
59366;SDS011;45163;47.690;11.770;2023-07-13T09:51:44;66.93;;;63.17;;
59366;SDS011;45163;47.690;11.770;2023-07-13T09:54:20;93.20;;;88.07;;
59366;SDS011;45163;47.690;11.770;2023-07-13T09:56:56;111.20;;;104.90;;
59366;SDS011;45163;47.690;11.770;2023-07-13T09:59:32;122.27;;;115.07;;
59366;SDS011;45163;47.690;11.770;2023-07-13T10:02:00;103.50;;;97.37;;
59366;SDS011;45163;47.690;11.770;2023-07-13T10:04:28;115.63;;;108.73;;
59366;SDS011;45163;47.690;11.770;2023-07-13T10:07:11;103.10;;;97.00;;
59366;SDS011;45163;47.690;11.770;2023-07-13T10:09:41;72.07;;;67.77;;
59366;SDS011;45163;47.690;11.770;2023-07-13T10:12:16;74.23;;;69.93;;
59366;SDS011;45163;47.690;11.770;2023-07-13T10:14:43;102.60;;;96.77;;
59366;SDS011;45163;47.690;11.770;2023-07-13T10:17:10;175.13;;;165.30;;
59366;SDS011;45163;47.690;11.770;2023-07-13T10:19:39;225.43;;;211.67;;
59366;SDS011;45163;47.690;11.770;2023-07-13T10:24:41;127.53;;;119.80;;
59366;SDS011;45163;47.690;11.770;2023-07-13T10:27:19;80.00;;;75.03;;
59366;SDS011;45163;47.690;11.770;2023-07-13T10:30:11;104.60;;;98.27;;
59366;SDS011;45163;47.690;11.770;2023-07-13T10:32:43;86.53;;;81.13;;
59366;SDS011;45163;47.690;11.770;2023-07-13T10:35:14;52.73;;;49.47;;
59366;SDS011;45163;47.690;11.770;2023-07-13T10:37:51;71.23;;;67.03;;
59366;SDS011;45163;47.690;11.770;2023-07-13T10:40:25;122.03;;;114.97;;
59366;SDS011;45163;47.690;11.770;2023-07-13T10:42:56;162.43;;;153.43;;
59366;SDS011;45163;47.690;11.770;2023-07-13T10:45:25;150.87;;;141.90;;
59366;SDS011;45163;47.690;11.770;2023-07-13T10:47:55;132.80;;;124.57;;
59366;SDS011;45163;47.690;11.770;2023-07-13T10:50:22;136.80;;;128.30;;
59366;SDS011;45163;47.690;11.770;2023-07-13T10:52:53;133.00;;;124.53;;
59366;SDS011;45163;47.690;11.770;2023-07-13T11:03:15;118.87;;;111.63;;
59366;SDS011;45163;47.690;11.770;2023-07-13T11:05:44;115.17;;;108.20;;
59366;SDS011;45163;47.690;11.770;2023-07-13T11:08:19;103.33;;;97.33;;
59366;SDS011;45163;47.690;11.770;2023-07-13T11:11:00;104.80;;;98.67;;
59366;SDS011;45163;47.690;11.770;2023-07-13T11:13:36;90.80;;;85.53;;
59366;SDS011;45163;47.690;11.770;2023-07-13T11:18:49;95.57;;;90.07;;
59366;SDS011;45163;47.690;11.770;2023-07-13T11:21:19;107.83;;;101.43;;
59366;SDS011;45163;47.690;11.770;2023-07-13T11:23:53;120.50;;;113.37;;
59366;SDS011;45163;47.690;11.770;2023-07-13T11:31:43;130.60;;;122.80;;
59366;SDS011;45163;47.690;11.770;2023-07-13T11:34:21;150.30;;;141.30;;
59366;SDS011;45163;47.690;11.770;2023-07-13T11:36:53;261.27;;;244.70;;
59366;SDS011;45163;47.690;11.770;2023-07-13T11:39:21;285.40;;;266.20;;
59366;SDS011;45163;47.690;11.770;2023-07-13T11:42:05;235.67;;;219.97;;
59366;SDS011;45163;47.690;11.770;2023-07-13T11:44:35;147.13;;;138.20;;
59366;SDS011;45163;47.690;11.770;2023-07-13T11:47:11;149.40;;;141.20;;
59366;SDS011;45163;47.690;11.770;2023-07-13T11:49:48;75.80;;;70.93;;
59366;SDS011;45163;47.690;11.770;2023-07-13T11:52:22;124.60;;;115.93;;
59366;SDS011;45163;47.690;11.770;2023-07-13T11:54:54;230.50;;;213.93;;
59366;SDS011;45163;47.690;11.770;2023-07-13T11:57:26;130.93;;;123.43;;
59366;SDS011;45163;47.690;11.770;2023-07-13T11:59:56;106.97;;;100.77;;
59366;SDS011;45163;47.690;11.770;2023-07-13T12:02:28;190.02;;;178.73;;
59366;SDS011;45163;47.690;11.770;2023-07-13T12:04:59;123.22;;;115.55;;
59366;SDS011;45163;47.690;11.770;2023-07-13T12:07:29;222.68;;;210.40;;
59366;SDS011;45163;47.690;11.770;2023-07-13T12:12:35;53.72;;;50.83;;
59366;SDS011;45163;47.690;11.770;2023-07-13T12:15:06;51.22;;;48.38;;
59366;SDS011;45163;47.690;11.770;2023-07-13T12:17:34;56.50;;;53.30;;
59366;SDS011;45163;47.690;11.770;2023-07-13T12:20:03;87.57;;;82.72;;
59366;SDS011;45163;47.690;11.770;2023-07-13T12:22:45;89.78;;;84.93;;
59366;SDS011;45163;47.690;11.770;2023-07-13T12:25:12;72.30;;;68.38;;
59366;SDS011;45163;47.690;11.770;2023-07-13T12:27:40;22.90;;;21.63;;
59366;SDS011;45163;47.690;11.770;2023-07-13T12:32:58;27.17;;;25.58;;
59366;SDS011;45163;47.690;11.770;2023-07-13T12:35:26;37.22;;;34.90;;
59366;SDS011;45163;47.690;11.770;2023-07-13T12:37:56;37.88;;;35.45;;
59366;SDS011;45163;47.690;11.770;2023-07-13T12:40:35;55.17;;;51.67;;
59366;SDS011;45163;47.690;11.770;2023-07-13T12:43:02;51.05;;;47.97;;
59366;SDS011;45163;47.690;11.770;2023-07-13T12:45:30;35.42;;;33.53;;
59366;SDS011;45163;47.690;11.770;2023-07-13T12:47:57;58.22;;;55.08;;
59366;SDS011;45163;47.690;11.770;2023-07-13T12:50:49;54.40;;;51.35;;
59366;SDS011;45163;47.690;11.770;2023-07-13T12:53:18;44.55;;;42.10;;
59366;SDS011;45163;47.690;11.770;2023-07-13T12:55:48;39.67;;;37.55;;
59366;SDS011;45163;47.690;11.770;2023-07-13T12:58:34;31.50;;;29.75;;
59366;SDS011;45163;47.690;11.770;2023-07-13T13:01:04;96.22;;;90.82;;
59366;SDS011;45163;47.690;11.770;2023-07-13T13:03:32;80.10;;;75.53;;
59366;SDS011;45163;47.690;11.770;2023-07-13T13:08:31;95.55;;;90.35;;
59366;SDS011;45163;47.690;11.770;2023-07-13T13:10:58;52.45;;;49.58;;
59366;SDS011;45163;47.690;11.770;2023-07-13T13:13:24;98.43;;;92.82;;
59366;SDS011;45163;47.690;11.770;2023-07-13T13:15:50;142.52;;;134.52;;
59366;SDS011;45163;47.690;11.770;2023-07-13T13:18:17;143.82;;;135.82;;
59366;SDS011;45163;47.690;11.770;2023-07-13T13:20:45;94.35;;;89.18;;
59366;SDS011;45163;47.690;11.770;2023-07-13T13:23:16;95.72;;;90.55;;
59366;SDS011;45163;47.690;11.770;2023-07-13T13:25:44;46.00;;;43.47;;
59366;SDS011;45163;47.690;11.770;2023-07-13T13:28:15;31.13;;;29.42;;
59366;SDS011;45163;47.690;11.770;2023-07-13T13:30:43;51.85;;;48.92;;
59366;SDS011;45163;47.690;11.770;2023-07-13T13:33:11;57.97;;;54.70;;
59366;SDS011;45163;47.690;11.770;2023-07-13T13:35:40;84.68;;;79.80;;
59366;SDS011;45163;47.690;11.770;2023-07-13T13:38:10;43.58;;;41.13;;
59366;SDS011;45163;47.690;11.770;2023-07-13T13:40:44;47.92;;;45.28;;
59366;SDS011;45163;47.690;11.770;2023-07-13T13:43:22;60.85;;;57.53;;
59366;SDS011;45163;47.690;11.770;2023-07-13T13:45:53;94.43;;;89.53;;
59366;SDS011;45163;47.690;11.770;2023-07-13T13:48:27;152.75;;;144.68;;
59366;SDS011;45163;47.690;11.770;2023-07-13T13:50:57;111.25;;;105.45;;
59366;SDS011;45163;47.690;11.770;2023-07-13T13:53:23;79.90;;;75.65;;
59366;SDS011;45163;47.690;11.770;2023-07-13T13:55:50;68.20;;;64.53;;
59366;SDS011;45163;47.690;11.770;2023-07-13T13:58:21;46.20;;;43.65;;
59366;SDS011;45163;47.690;11.770;2023-07-13T14:00:47;64.75;;;61.20;;
59366;SDS011;45163;47.690;11.770;2023-07-13T14:03:15;66.80;;;63.10;;
59366;SDS011;45163;47.690;11.770;2023-07-13T14:05:44;68.95;;;65.22;;
59366;SDS011;45163;47.690;11.770;2023-07-13T14:08:15;32.70;;;30.90;;
59366;SDS011;45163;47.690;11.770;2023-07-13T14:10:43;26.98;;;25.52;;
59366;SDS011;45163;47.690;11.770;2023-07-13T14:13:33;23.73;;;22.42;;
59366;SDS011;45163;47.690;11.770;2023-07-13T14:16:01;72.63;;;68.50;;
59366;SDS011;45163;47.690;11.770;2023-07-13T14:18:28;82.95;;;78.38;;
59366;SDS011;45163;47.690;11.770;2023-07-13T14:20:54;48.42;;;45.80;;
59366;SDS011;45163;47.690;11.770;2023-07-13T14:23:20;44.70;;;42.22;;
59366;SDS011;45163;47.690;11.770;2023-07-13T14:25:46;21.85;;;20.60;;
59366;SDS011;45163;47.690;11.770;2023-07-13T14:28:20;30.73;;;29.02;;
59366;SDS011;45163;47.690;11.770;2023-07-13T14:30:46;38.17;;;36.08;;
59366;SDS011;45163;47.690;11.770;2023-07-13T14:33:13;23.13;;;21.83;;
59366;SDS011;45163;47.690;11.770;2023-07-13T14:35:39;27.75;;;26.23;;
59366;SDS011;45163;47.690;11.770;2023-07-13T14:38:07;34.03;;;32.17;;
59366;SDS011;45163;47.690;11.770;2023-07-13T14:40:37;36.75;;;34.70;;
59366;SDS011;45163;47.690;11.770;2023-07-13T14:43:03;24.40;;;22.88;;
59366;SDS011;45163;47.690;11.770;2023-07-13T14:45:29;30.48;;;28.75;;
59366;SDS011;45163;47.690;11.770;2023-07-13T14:47:56;36.35;;;34.33;;